Time;durP1;ratioP1;P1;durP2;ratioP2;P2;SDS_P1;SDS_P2;PMS_P1;PMS_P2;Temp;Humidity;BMP_temperature;BMP_pressure;BME280_temperature;BME280_humidity;BME280_pressure;Samples;Min_cycle;Max_cycle;Signal;HPM_P1;HPM_P2
2022/04/12 00:01:10;;;;;;;31.60;19.40;;;;;;;3.64;78.16;98751.61;106177;1277;22587;-74
2022/04/12 00:03:38;;;;;;;36.10;20.10;;;;;;;3.64;78.26;98750.83;106193;1277;22554;-74
2022/04/12 00:06:08;;;;;;;32.20;18.10;;;;;;;3.66;78.26;98755.45;105980;1277;137922;-74
2022/04/12 00:08:48;;;;;;;31.60;17.80;;;;;;;3.69;78.21;98753.94;106260;1277;26308;-74
2022/04/12 00:11:15;;;;;;;30.50;17.30;;;;;;;3.72;78.34;98753.02;105907;1277;137881;-74
2022/04/12 00:13:57;;;;;;;28.10;16.80;;;;;;;3.72;78.41;98751.81;106032;1277;22609;-74
2022/04/12 00:16:38;;;;;;;33.20;18.20;;;;;;;3.68;78.53;98747.63;105934;1277;137190;-76
2022/04/12 00:19:24;;;;;;;28.40;17.90;;;;;;;3.66;78.51;98740.16;105886;1277;23405;-75
2022/04/12 00:21:51;;;;;;;34.40;20.90;;;;;;;3.64;78.59;98741.79;106165;1277;139322;-75
2022/04/12 00:24:18;;;;;;;29.80;18.30;;;;;;;3.63;78.51;98737.73;105753;1278;24464;-75
2022/04/12 00:26:45;;;;;;;31.70;18.10;;;;;;;3.63;78.59;98735.36;106003;1278;22652;-75
2022/04/12 00:29:13;;;;;;;30.70;17.80;;;;;;;3.65;78.63;98729.88;105832;1276;137731;-75
2022/04/12 00:31:55;;;;;;;32.30;18.60;;;;;;;3.69;78.57;98731.77;105894;1276;22678;-75
2022/04/12 00:34:36;;;;;;;32.10;19.40;;;;;;;3.68;78.36;98725.88;105826;1277;137356;-74
2022/04/12 00:37:08;;;;;;;33.90;19.10;;;;;;;3.64;78.37;98719.84;105864;1276;22727;-74
2022/04/12 00:39:37;;;;;;;35.30;20.90;;;;;;;3.62;78.30;98728.31;106003;1277;22574;-74
2022/04/12 00:42:18;;;;;;;32.00;20.30;;;;;;;3.61;78.55;98729.88;106218;1277;137852;-74
2022/04/12 00:44:48;;;;;;;31.60;18.90;;;;;;;3.59;78.48;98731.11;106061;1277;22539;-74
2022/04/12 00:47:15;;;;;;;30.00;18.80;;;;;;;3.57;78.60;98730.58;105842;1277;137289;-73
2022/04/12 00:49:45;;;;;;;33.50;18.70;;;;;;;3.56;78.63;98729.17;106040;1277;22583;-73
2022/04/12 00:52:28;;;;;;;46.80;23.40;;;;;;;3.52;78.44;98730.17;106269;1276;137960;-74
2022/04/12 00:54:55;;;;;;;41.50;22.80;;;;;;;3.40;78.34;98729.85;106123;1276;22674;-74
2022/04/12 00:57:25;;;;;;;44.70;23.30;;;;;;;3.34;78.76;98733.67;106035;1277;23729;-74
2022/04/12 01:00:09;;;;;;;37.30;22.00;;;;;;;3.32;79.03;98737.59;105964;1277;138261;-74
2022/04/12 01:02:36;;;;;;;38.90;21.70;;;;;;;3.34;79.20;98734.63;106104;1277;22563;-73
2022/04/12 01:05:04;;;;;;;37.40;21.40;;;;;;;3.35;79.18;98733.78;106058;1278;138027;-74
2022/04/12 01:07:48;;;;;;;33.90;19.70;;;;;;;3.37;79.26;98732.17;105982;1277;22550;-73
2022/04/12 01:10:32;;;;;;;36.50;19.70;;;;;;;3.36;79.17;98729.96;105913;1277;138120;-75
2022/04/12 01:13:00;;;;;;;37.90;21.80;;;;;;;3.33;79.38;98724.98;106236;1277;22567;-74
2022/04/12 01:15:46;;;;;;;33.50;20.50;;;;;;;3.33;79.49;98727.13;106050;1276;22569;-75
2022/04/12 01:18:27;;;;;;;33.50;19.40;;;;;;;3.35;79.55;98725.86;105983;1278;138117;-74
2022/04/12 01:20:55;;;;;;;36.90;20.80;;;;;;;3.37;79.37;98728.38;106233;1274;22525;-74
2022/04/12 01:23:52;;;;;;;38.10;19.30;;;;;;;3.36;79.39;98725.25;106109;1276;138658;-74
2022/04/12 01:26:34;;;;;;;45.90;22.90;;;;;;;3.30;79.42;98734.06;105934;1277;25260;-74
2022/04/12 01:29:15;;;;;;;41.50;21.90;;;;;;;3.26;79.66;98726.77;105936;1276;137285;-74
2022/04/12 01:31:42;;;;;;;40.50;21.70;;;;;;;3.21;79.69;98723.53;106182;1277;22550;-75
2022/04/12 01:34:22;;;;;;;35.90;19.80;;;;;;;3.19;79.54;98729.52;105891;1277;138097;-74
2022/04/12 01:37:04;;;;;;;30.30;16.50;;;;;;;3.15;79.89;98730.21;106290;1276;22592;-74
2022/04/12 01:39:31;;;;;;;41.30;20.70;;;;;;;3.06;79.85;98731.82;106172;1274;22556;-74
2022/04/12 01:41:58;;;;;;;38.00;20.70;;;;;;;2.92;79.98;98736.04;106075;1277;137639;-75
2022/04/12 01:44:26;;;;;;;47.30;24.50;;;;;;;2.78;80.12;98735.66;106182;1274;22731;-75
2022/04/12 01:47:10;;;;;;;41.50;23.30;;;;;;;2.72;80.71;98737.86;106038;1275;138115;-74
2022/04/12 01:49:51;;;;;;;36.10;21.30;;;;;;;2.72;80.89;98733.93;106184;1277;31186;-74
2022/04/12 01:52:33;;;;;;;42.40;21.10;;;;;;;2.72;80.94;98738.69;105937;1278;138237;-74
2022/04/12 01:55:14;;;;;;;44.00;21.80;;;;;;;2.71;80.93;98741.40;106154;1277;22658;-74
2022/04/12 01:57:55;;;;;;;43.40;22.70;;;;;;;2.73;81.36;98745.45;105972;1279;22553;-74
2022/04/12 02:00:22;;;;;;;43.10;21.90;;;;;;;2.77;81.42;98744.13;106033;1275;137131;-74
2022/04/12 02:02:50;;;;;;;51.00;22.20;;;;;;;2.83;81.41;98745.41;106128;1275;22564;-74
2022/04/12 02:05:20;;;;;;;46.10;23.20;;;;;;;2.87;81.01;98749.80;106194;1274;138635;-74
2022/04/12 02:07:47;;;;;;;34.50;22.00;;;;;;;2.89;80.89;98748.27;106205;1274;22557;-74
2022/04/12 02:10:28;;;;;;;39.20;21.20;;;;;;;2.90;80.72;98749.59;106027;1274;137913;-74
2022/04/12 02:13:00;;;;;;;36.70;21.40;;;;;;;2.89;80.85;98752.61;106208;1274;22605;-75
2022/04/12 02:15:28;;;;;;;36.70;21.30;;;;;;;2.92;81.08;98751.52;106235;1277;22591;-74
2022/04/12 02:17:55;;;;;;;34.70;20.60;;;;;;;2.96;80.98;98750.52;106077;1278;138231;-74
2022/04/12 02:20:36;;;;;;;38.50;20.10;;;;;;;3.00;80.81;98753.39;105996;1277;24363;-74
2022/04/12 02:23:17;;;;;;;34.70;20.10;;;;;;;3.05;80.65;98755.14;105693;1278;137770;-74
2022/04/12 02:25:44;;;;;;;35.90;19.80;;;;;;;3.07;80.62;98761.30;105981;1277;23954;-74
2022/04/12 02:28:11;;;;;;;34.00;18.80;;;;;;;3.12;80.69;98760.73;105948;1276;137322;-74
2022/04/12 02:30:38;;;;;;;36.10;19.70;;;;;;;3.15;80.42;98765.36;106062;1274;22694;-74
2022/04/12 02:33:05;;;;;;;35.00;20.10;;;;;;;3.16;80.34;98764.84;105958;1274;22690;-74
2022/04/12 02:35:32;;;;;;;35.80;20.50;;;;;;;3.17;80.06;98766.36;105979;1274;138212;-74
2022/04/12 02:37:59;;;;;;;33.70;18.90;;;;;;;3.17;80.16;98771.55;106002;1274;23051;-74
2022/04/12 02:40:27;;;;;;;37.40;19.60;;;;;;;3.18;80.05;98772.65;105756;1274;137770;-74
2022/04/12 02:42:54;;;;;;;42.90;20.30;;;;;;;3.17;80.12;98769.96;106018;1275;23530;-74
2022/04/12 02:45:21;;;;;;;34.10;20.60;;;;;;;3.18;80.26;98771.30;105943;1274;25418;-74
2022/04/12 02:47:48;;;;;;;40.60;19.90;;;;;;;3.19;80.13;98773.77;105895;1274;137051;-74
2022/04/12 02:50:15;;;;;;;38.90;21.80;;;;;;;3.16;79.80;98778.16;106238;1274;22627;-74
2022/04/12 02:52:45;;;;;;;38.30;20.80;;;;;;;3.09;79.81;98776.71;105789;1277;138452;-74
2022/04/12 02:55:11;;;;;;;36.50;21.60;;;;;;;3.04;79.92;98776.91;106083;1274;22992;-74
2022/04/12 02:57:39;;;;;;;34.80;21.30;;;;;;;3.00;80.08;98777.19;105934;1276;22535;-74
2022/04/12 03:00:07;;;;;;;41.00;20.80;;;;;;;2.97;80.13;98779.26;105826;1275;137328;-74
2022/04/12 03:02:36;;;;;;;38.30;22.50;;;;;;;2.93;80.12;98780.86;105868;1275;25409;-74
2022/04/12 03:05:03;;;;;;;38.90;21.50;;;;;;;2.89;80.24;98782.35;105738;1277;137546;-74
2022/04/12 03:07:44;;;;;;;42.10;22.10;;;;;;;2.86;80.23;98781.98;105894;1274;22608;-74
2022/04/12 03:10:11;;;;;;;37.00;20.00;;;;;;;2.86;80.28;98779.50;105759;1277;138362;-74
2022/04/12 03:12:38;;;;;;;35.00;18.40;;;;;;;2.85;80.04;98778.13;106037;1274;24418;-74
2022/04/12 03:15:08;;;;;;;33.60;19.00;;;;;;;2.84;80.05;98778.40;106034;1275;22567;-74
2022/04/12 03:17:35;;;;;;;33.00;19.80;;;;;;;2.84;80.10;98785.77;106011;1274;137319;-74
2022/04/12 03:20:03;;;;;;;33.80;19.40;;;;;;;2.82;79.97;98787.66;106105;1274;22538;-74
2022/04/12 03:22:29;;;;;;;38.30;21.20;;;;;;;2.78;80.10;98785.11;105891;1274;137404;-74
2022/04/12 03:24:56;;;;;;;44.70;21.40;;;;;;;2.77;80.12;98783.48;105973;1275;24253;-74
2022/04/12 03:27:23;;;;;;;33.80;19.50;;;;;;;2.78;80.16;98781.31;105870;1277;25670;-74
2022/04/12 03:29:50;;;;;;;33.30;19.20;;;;;;;2.79;80.02;98781.89;105886;1274;137727;-74
2022/04/12 03:32:17;;;;;;;33.60;19.60;;;;;;;2.78;79.97;98778.08;105977;1274;30520;-74
2022/04/12 03:34:45;;;;;;;34.80;19.80;;;;;;;2.77;79.75;98775.98;105741;1275;137261;-74
2022/04/12 03:37:14;;;;;;;34.30;19.70;;;;;;;2.76;79.86;98775.31;105890;1277;22638;-74
2022/04/12 03:39:43;;;;;;;37.60;20.10;;;;;;;2.72;79.74;98779.73;105979;1277;22572;-74
2022/04/12 03:42:11;;;;;;;33.20;20.10;;;;;;;2.69;79.81;98783.13;106236;1274;138471;-74
2022/04/12 03:44:39;;;;;;;30.50;17.50;;;;;;;2.64;79.61;98786.32;106191;1274;22698;-74
2022/04/12 03:47:07;;;;;;;38.90;21.80;;;;;;;2.55;79.68;98784.09;105867;1274;137888;-75
2022/04/12 03:49:34;;;;;;;36.70;20.20;;;;;;;2.48;80.12;98782.17;106071;1274;22560;-75
2022/04/12 03:52:00;;;;;;;35.50;21.20;;;;;;;2.44;80.33;98782.23;106228;1274;22547;-75
2022/04/12 03:54:27;;;;;;;37.20;22.30;;;;;;;2.42;80.30;98781.63;105967;1277;137768;-75
2022/04/12 03:56:55;;;;;;;32.80;19.70;;;;;;;2.39;80.14;98776.34;106098;1274;23259;-75
2022/04/12 03:59:22;;;;;;;37.90;19.10;;;;;;;2.37;80.15;98778.09;105747;1278;138363;-75
2022/04/12 04:01:49;;;;;;;34.10;18.90;;;;;;;2.34;80.01;98775.43;106082;1277;22557;-75
2022/04/12 04:04:17;;;;;;;34.80;19.60;;;;;;;2.31;80.17;98777.04;105906;1277;137561;-75
2022/04/12 04:06:44;;;;;;;33.00;19.90;;;;;;;2.28;80.08;98782.38;106181;1277;24424;-75
2022/04/12 04:09:11;;;;;;;40.00;19.70;;;;;;;2.25;80.31;98782.38;106044;1276;24233;-75
2022/04/12 04:11:38;;;;;;;36.40;20.30;;;;;;;2.23;80.34;98785.85;106223;1274;137470;-75
2022/04/12 04:14:09;;;;;;;33.20;20.70;;;;;;;2.21;80.41;98792.11;106092;1274;22559;-75
2022/04/12 04:16:39;;;;;;;40.60;20.00;;;;;;;2.20;80.26;98795.02;106062;1274;140923;-75
2022/04/12 04:19:08;;;;;;;34.10;20.10;;;;;;;2.12;80.19;98799.70;105904;1277;26615;-74
2022/04/12 04:21:39;;;;;;;44.90;20.80;;;;;;;2.03;80.76;98796.55;106384;1274;22558;-75
2022/04/12 04:24:06;;;;;;;41.70;22.00;;;;;;;2.01;81.02;98795.91;106011;1276;137830;-75
2022/04/12 04:26:33;;;;;;;36.10;21.90;;;;;;;1.99;81.15;98796.38;106088;1274;23938;-75
2022/04/12 04:29:01;;;;;;;36.20;21.50;;;;;;;1.97;81.30;98805.48;105986;1274;138144;-75
2022/04/12 04:31:28;;;;;;;39.60;20.70;;;;;;;1.99;81.35;98811.80;106055;1275;26500;-75
2022/04/12 04:33:55;;;;;;;36.60;21.10;;;;;;;2.00;81.57;98810.70;106015;1277;22697;-75
2022/04/12 04:36:22;;;;;;;35.30;20.10;;;;;;;2.02;81.52;98806.52;105927;1277;137351;-74
2022/04/12 04:39:03;;;;;;;40.90;20.70;;;;;;;2.07;81.80;98821.56;105984;1277;22690;-75
2022/04/12 04:41:30;;;;;;;38.00;22.60;;;;;;;2.11;82.04;98823.36;105796;1277;137621;-75
2022/04/12 04:44:10;;;;;;;33.60;20.60;;;;;;;2.19;82.17;98823.07;106045;1277;22542;-75
2022/04/12 04:46:52;;;;;;;40.30;20.60;;;;;;;2.25;81.72;98831.41;105684;1276;138285;-74
2022/04/12 04:49:19;;;;;;;34.60;19.70;;;;;;;2.29;81.65;98825.21;106077;1274;24380;-74
2022/04/12 04:51:46;;;;;;;34.80;20.00;;;;;;;2.34;81.65;98820.70;106087;1274;24209;-75
2022/04/12 04:54:27;;;;;;;31.10;19.10;;;;;;;2.40;81.86;98823.23;105889;1277;137500;-75
2022/04/12 04:57:07;;;;;;;34.60;19.10;;;;;;;2.46;81.81;98821.23;105977;1277;24238;-75
2022/04/12 04:59:34;;;;;;;30.80;18.80;;;;;;;2.51;81.67;98825.88;105965;1276;137361;-74
2022/04/12 05:02:01;;;;;;;31.90;19.40;;;;;;;2.58;81.71;98827.89;106145;1276;24435;-74
2022/04/12 05:04:42;;;;;;;31.20;18.70;;;;;;;2.67;81.45;98825.00;105930;1276;138772;-75
2022/04/12 05:07:09;;;;;;;31.40;17.40;;;;;;;2.75;81.44;98819.73;105981;1277;22574;-74
2022/04/12 05:09:36;;;;;;;33.10;18.40;;;;;;;2.82;81.35;98824.39;106037;1277;22547;-74
2022/04/12 05:12:03;;;;;;;32.30;18.80;;;;;;;2.89;80.99;98824.77;105982;1276;137255;-75
2022/04/12 05:14:30;;;;;;;38.60;21.60;;;;;;;2.92;80.80;98827.83;105988;1277;22535;-74
2022/04/12 05:16:57;;;;;;;55.50;25.30;;;;;;;2.94;80.95;98830.83;105925;1277;137128;-74
2022/04/12 05:19:24;;;;;;;52.20;25.10;;;;;;;2.96;80.81;98839.97;105956;1277;24315;-75
2022/04/12 05:22:04;;;;;;;43.30;23.70;;;;;;;2.93;80.35;98842.16;106334;1274;22639;-74
2022/04/12 05:24:31;;;;;;;38.80;21.50;;;;;;;2.88;80.36;98842.59;105979;1276;137485;-74
2022/04/12 05:26:58;;;;;;;34.10;18.60;;;;;;;2.88;80.26;98843.12;106139;1276;24322;-74
2022/04/12 05:29:25;;;;;;;32.20;18.00;;;;;;;2.88;79.87;98853.39;106159;1276;137565;-74
2022/04/12 05:31:52;;;;;;;37.30;22.00;;;;;;;2.85;79.87;98852.77;106182;1276;22861;-74
2022/04/12 05:34:19;;;;;;;39.80;21.10;;;;;;;2.84;80.12;98857.35;105998;1277;137249;-74
2022/04/12 05:36:46;;;;;;;38.90;22.30;;;;;;;2.85;80.14;98861.17;106210;1277;25304;-74
2022/04/12 05:39:14;;;;;;;39.20;22.80;;;;;;;2.88;80.47;98857.47;106128;1277;25368;-74
2022/04/12 05:42:00;;;;;;;39.80;22.80;;;;;;;3.00;80.65;98861.75;106093;1277;137949;-74
2022/04/12 05:44:33;;;;;;;40.70;23.00;;;;;;;3.13;80.86;98862.84;106220;1274;25314;-74
2022/04/12 05:47:01;;;;;;;39.50;22.70;;;;;;;3.28;80.63;98868.08;106273;1274;137829;-74
2022/04/12 05:49:29;;;;;;;45.40;23.50;;;;;;;3.38;80.56;98866.63;106235;1274;24411;-74
2022/04/12 05:51:56;;;;;;;39.70;22.70;;;;;;;3.49;80.74;98863.86;105986;1277;22705;-74
2022/04/12 05:54:24;;;;;;;42.50;24.50;;;;;;;3.57;80.59;98863.86;106202;1277;137258;-74
2022/04/12 05:57:04;;;;;;;43.20;24.60;;;;;;;3.69;80.19;98867.91;106221;1274;25245;-74
2022/04/12 05:59:32;;;;;;;35.80;23.10;;;;;;;3.73;79.92;98869.47;106234;1274;137871;-74
2022/04/12 06:01:59;;;;;;;38.10;23.00;;;;;;;3.77;80.09;98866.45;106158;1274;24316;-74
2022/04/12 06:04:39;;;;;;;47.10;24.80;;;;;;;3.85;80.14;98869.52;106108;1274;137273;-74
2022/04/12 06:07:06;;;;;;;39.70;24.30;;;;;;;3.91;80.05;98868.08;106143;1274;22528;-74
2022/04/12 06:09:33;;;;;;;43.90;23.80;;;;;;;3.96;79.71;98873.27;106556;1277;22701;-74
2022/04/12 06:12:01;;;;;;;45.70;22.90;;;;;;;3.97;79.40;98871.50;106279;1275;137212;-74
2022/04/12 06:14:28;;;;;;;46.70;24.80;;;;;;;4.01;79.35;98876.29;106427;1274;22557;-74
2022/04/12 06:16:55;;;;;;;40.10;22.60;;;;;;;4.07;79.59;98880.02;106187;1274;138181;-74
2022/04/12 06:19:22;;;;;;;41.80;22.60;;;;;;;4.14;79.27;98883.09;106280;1274;24257;-74
2022/04/12 06:21:49;;;;;;;48.40;22.40;;;;;;;4.25;79.31;98884.94;106415;1276;22537;-74
2022/04/12 06:24:18;;;;;;;42.00;23.00;;;;;;;4.34;78.98;98884.69;106029;1276;137268;-74
2022/04/12 06:26:45;;;;;;;46.30;25.30;;;;;;;4.41;78.62;98892.75;106244;1277;25435;-75
2022/04/12 06:29:12;;;;;;;41.70;23.00;;;;;;;4.49;78.48;98892.86;106180;1274;137844;-74
2022/04/12 06:31:39;;;;;;;43.80;23.10;;;;;;;4.57;78.10;98893.26;106259;1274;24666;-74
2022/04/12 06:34:06;;;;;;;45.60;25.00;;;;;;;4.65;77.96;98891.54;106394;1274;22540;-73
2022/04/12 06:36:33;;;;;;;47.60;26.60;;;;;;;4.72;77.73;98892.20;106146;1274;137810;-73
2022/04/12 06:39:00;;;;;;;49.90;25.10;;;;;;;4.81;77.32;98893.36;106257;1274;23613;-73
2022/04/12 06:41:27;;;;;;;45.40;21.00;;;;;;;4.88;77.18;98893.77;106205;1274;137978;-73
2022/04/12 06:43:53;;;;;;;49.90;25.00;;;;;;;4.93;76.80;98889.20;106180;1276;23159;-73
2022/04/12 06:46:20;;;;;;;41.90;22.40;;;;;;;5.00;76.77;98896.05;106135;1276;138389;-73
2022/04/12 06:48:47;;;;;;;47.30;23.70;;;;;;;5.05;76.52;98896.00;106444;1276;22565;-73
2022/04/12 06:51:14;;;;;;;49.50;25.80;;;;;;;5.06;76.14;98899.61;106331;1277;25379;-74
2022/04/12 06:53:41;;;;;;;44.40;24.10;;;;;;;5.11;76.08;98900.89;106129;1275;289798;-73
2022/04/12 06:56:08;;;;;;;44.10;24.90;;;;;;;5.16;75.43;98901.01;106141;1277;22575;-73
2022/04/12 06:58:35;;;;;;;44.40;24.50;;;;;;;5.22;75.35;98901.75;106024;1276;138087;-73
2022/04/12 07:01:02;;;;;;;41.90;22.00;;;;;;;5.27;75.17;98902.07;106191;1276;22878;-74
2022/04/12 07:03:29;;;;;;;42.70;23.90;;;;;;;5.35;74.73;98900.14;106045;1276;25356;-73
2022/04/12 07:05:57;;;;;;;40.30;21.50;;;;;;;5.42;73.64;98896.17;106065;1274;137936;-73
2022/04/12 07:08:24;;;;;;;47.40;22.40;;;;;;;5.47;72.68;98900.79;106237;1277;25257;-73
2022/04/12 07:10:51;;;;;;;39.00;22.20;;;;;;;5.54;72.90;98901.86;106003;1277;137442;-73
2022/04/12 07:13:19;;;;;;;34.80;20.20;;;;;;;5.61;72.38;98900.17;106046;1277;22558;-73
2022/04/12 07:15:46;;;;;;;41.50;22.00;;;;;;;5.68;71.92;98897.26;106109;1276;22567;-73
2022/04/12 07:18:27;;;;;;;37.90;20.40;;;;;;;5.76;71.17;98900.54;105962;1276;137517;-73
2022/04/12 07:20:55;;;;;;;39.30;19.10;;;;;;;5.81;70.01;98904.56;106215;1274;22547;-74
2022/04/12 07:23:36;;;;;;;37.30;18.20;;;;;;;5.87;69.94;98900.71;106530;1274;137389;-73
2022/04/12 07:26:04;;;;;;;36.50;17.60;;;;;;;5.93;69.71;98902.86;106547;1277;22553;-73
2022/04/12 07:28:31;;;;;;;33.10;17.20;;;;;;;6.01;69.01;98906.48;106052;1275;137487;-73
2022/04/12 07:30:58;;;;;;;28.60;16.00;;;;;;;6.09;68.75;98907.59;106068;1277;23975;-73
2022/04/12 07:33:26;;;;;;;32.80;18.00;;;;;;;6.15;67.68;98905.23;106340;1276;24215;-73
2022/04/12 07:36:07;;;;;;;31.30;17.40;;;;;;;6.21;68.12;98909.06;106585;1274;137438;-73
2022/04/12 07:38:34;;;;;;;36.40;21.60;;;;;;;6.27;68.40;98910.20;106805;1274;22561;-73
2022/04/12 07:41:01;;;;;;;36.40;19.10;;;;;;;6.38;69.15;98913.49;106299;1273;138121;-73
2022/04/12 07:43:28;;;;;;;36.60;20.90;;;;;;;6.50;69.31;98911.34;106407;1273;22694;-73
2022/04/12 07:45:55;;;;;;;34.30;20.80;;;;;;;6.62;69.56;98914.91;106538;1273;23213;-73
2022/04/12 07:48:22;;;;;;;30.20;16.60;;;;;;;6.75;69.34;98913.17;106587;1274;137536;-73
2022/04/12 07:50:49;;;;;;;29.50;17.20;;;;;;;6.86;67.94;98916.13;107264;1274;23371;-73
2022/04/12 07:53:16;;;;;;;23.70;14.00;;;;;;;6.99;67.19;98913.36;106489;1274;137172;-73
2022/04/12 07:55:43;;;;;;;29.90;16.30;;;;;;;7.09;66.27;98908.39;106517;1274;22742;-73
2022/04/12 07:58:10;;;;;;;29.30;16.70;;;;;;;7.20;66.03;98912.08;106207;1276;23317;-73
2022/04/12 08:00:40;;;;;;;27.90;15.80;;;;;;;7.30;65.94;98913.46;106231;1274;137646;-74
2022/04/12 08:03:07;;;;;;;26.00;13.90;;;;;;;7.41;65.00;98914.22;106160;1274;22601;-73
2022/04/12 08:05:35;;;;;;;22.50;12.40;;;;;;;7.51;64.74;98917.86;106361;1274;137976;-74
2022/04/12 08:08:17;;;;;;;12.80;7.80;;;;;;;7.64;63.73;98913.64;106267;1274;22544;-74
2022/04/12 08:10:44;;;;;;;19.60;11.80;;;;;;;7.74;61.57;98913.59;106391;1274;137450;-74
2022/04/12 08:13:29;;;;;;;23.10;13.40;;;;;;;7.83;61.82;98914.73;106224;1274;24280;-75
2022/04/12 08:15:56;;;;;;;17.10;10.40;;;;;;;7.91;62.36;98914.44;106683;1274;24279;-74
2022/04/12 08:18:24;;;;;;;20.00;10.20;;;;;;;8.01;61.06;98913.71;106391;1274;137142;-74
2022/04/12 08:20:51;;;;;;;16.60;9.80;;;;;;;8.12;61.06;98915.74;106418;1274;26295;-73
2022/04/12 08:23:21;;;;;;;19.40;10.00;;;;;;;8.22;60.51;98921.35;106179;1274;138261;-73
2022/04/12 08:25:49;;;;;;;15.00;8.90;;;;;;;8.33;59.80;98921.88;106545;1274;22703;-73
2022/04/12 08:28:16;;;;;;;24.00;10.10;;;;;;;8.44;59.31;98920.80;106444;1275;22601;-73
2022/04/12 08:30:43;;;;;;;16.20;8.40;;;;;;;8.56;59.86;98919.58;106786;1276;137048;-73
2022/04/12 08:33:10;;;;;;;16.50;8.80;;;;;;;8.71;58.43;98918.70;106213;1277;22847;-73
2022/04/12 08:35:37;;;;;;;16.50;8.50;;;;;;;8.84;57.86;98915.20;106034;1277;137094;-75
2022/04/12 08:38:04;;;;;;;13.20;7.90;;;;;;;8.98;58.24;98916.42;106118;1274;22638;-73
2022/04/12 08:40:45;;;;;;;17.90;9.60;;;;;;;9.11;57.72;98913.27;106203;1274;138622;-73
2022/04/12 08:43:15;;;;;;;13.80;7.90;;;;;;;9.21;57.08;98912.35;106232;1274;22554;-73
2022/04/12 08:45:45;;;;;;;16.90;8.30;;;;;;;9.27;55.16;98908.82;106125;1274;23068;-73
2022/04/12 08:48:14;;;;;;;15.20;8.30;;;;;;;9.33;55.54;98909.67;105898;1274;137288;-73
2022/04/12 08:50:41;;;;;;;14.90;7.70;;;;;;;9.46;56.40;98910.86;106218;1274;22563;-73
2022/04/12 08:53:10;;;;;;;15.20;7.20;;;;;;;9.59;56.03;98905.81;106129;1274;137033;-73
2022/04/12 08:55:39;;;;;;;13.80;7.50;;;;;;;9.72;55.59;98904.70;106517;1274;22534;-73
2022/04/12 08:58:06;;;;;;;16.60;8.80;;;;;;;9.84;55.05;98903.79;106146;1276;22616;-73
2022/04/12 09:00:33;;;;;;;16.70;8.80;;;;;;;9.94;53.79;98899.93;106014;1276;137542;-73
2022/04/12 09:02:59;;;;;;;18.10;8.40;;;;;;;10.02;54.59;98897.45;105982;1276;25304;-73
2022/04/12 09:05:27;;;;;;;15.50;9.10;;;;;;;10.15;54.83;98899.07;105877;1276;137496;-73
2022/04/12 09:07:55;;;;;;;15.00;8.70;;;;;;;10.28;53.68;98900.89;106421;1276;24130;-73
2022/04/12 09:10:36;;;;;;;15.00;8.40;;;;;;;10.38;53.42;98899.49;106407;1275;137632;-73
2022/04/12 09:13:14;;;;;;;15.80;9.20;;;;;;;10.45;51.09;98893.41;106082;1277;25372;-73
2022/04/12 09:15:45;;;;;;;14.50;8.00;;;;;;;10.48;51.12;98897.22;106081;1277;23837;-73
2022/04/12 09:18:32;;;;;;;11.90;7.50;;;;;;;10.55;49.38;98898.04;106065;1276;138107;-73
2022/04/12 09:21:17;;;;;;;14.30;8.10;;;;;;;10.59;47.72;98898.06;106302;1276;22544;-73
2022/04/12 09:23:49;;;;;;;13.50;8.30;;;;;;;10.58;47.52;98896.73;105992;1276;137831;-73
2022/04/12 09:26:30;;;;;;;13.70;8.50;;;;;;;10.68;48.12;98894.52;106234;1276;22654;-73
2022/04/12 09:29:00;;;;;;;15.10;8.40;;;;;;;10.90;49.21;98889.33;106315;1275;137588;-73
2022/04/12 09:31:27;;;;;;;14.40;8.30;;;;;;;11.14;48.62;98887.16;106083;1277;22556;-73
2022/04/12 09:33:55;;;;;;;16.80;8.10;;;;;;;11.33;48.05;98882.98;106070;1277;23009;-73
2022/04/12 09:36:22;;;;;;;14.30;9.20;;;;;;;11.51;48.18;98881.67;105986;1277;138355;-73
2022/04/12 09:38:59;;;;;;;12.50;7.60;;;;;;;11.67;47.17;98882.02;106316;1276;24212;-73
2022/04/12 09:41:27;;;;;;;13.10;8.30;;;;;;;11.69;46.41;98883.04;106022;1276;137391;-73
2022/04/12 09:43:57;;;;;;;14.10;7.90;;;;;;;11.71;45.40;98876.48;106012;1276;22538;-73
2022/04/12 09:46:27;;;;;;;12.50;8.20;;;;;;;11.70;44.95;98875.41;105845;1276;138152;-73
2022/04/12 09:48:54;;;;;;;12.40;8.00;;;;;;;11.61;44.79;98871.84;106165;1276;22576;-71
2022/04/12 09:51:23;;;;;;;13.50;8.10;;;;;;;11.58;45.19;98868.86;105977;1274;22551;-73
2022/04/12 09:53:51;;;;;;;14.20;8.40;;;;;;;11.70;44.87;98864.77;106341;1274;138062;-73
2022/04/12 09:56:24;;;;;;;13.40;7.70;;;;;;;11.77;45.32;98869.34;106051;1277;24081;-73
2022/04/12 09:58:54;;;;;;;13.20;7.80;;;;;;;11.93;45.39;98872.73;106135;1274;137519;-73
2022/04/12 10:01:23;;;;;;;14.00;8.00;;;;;;;12.15;44.74;98876.20;106224;1274;22527;-73
2022/04/12 10:03:53;;;;;;;12.10;8.00;;;;;;;12.22;44.12;98871.95;106046;1276;24439;-74
2022/04/12 10:06:23;;;;;;;13.90;8.20;;;;;;;12.07;42.17;98870.91;106048;1274;137671;-72
2022/04/12 10:08:59;;;;;;;12.70;7.50;;;;;;;11.80;42.78;98869.08;106978;1274;22547;-73
2022/04/12 10:11:27;;;;;;;13.60;7.90;;;;;;;11.65;43.31;98865.88;106604;1274;137508;-72
2022/04/12 10:13:54;;;;;;;12.50;8.40;;;;;;;11.49;43.75;98865.11;106964;1274;22571;-73
2022/04/12 10:16:24;;;;;;;14.70;8.90;;;;;;;11.32;44.81;98868.95;106621;1274;138882;-73
2022/04/12 10:18:53;;;;;;;12.40;7.60;;;;;;;11.19;45.99;98868.72;106786;1274;22715;-73
2022/04/12 10:21:26;;;;;;;;;;;;;;;11.07;45.44;98866.16;106893;1274;23073;-73
2022/04/12 10:23:56;;;;;;;15.60;7.90;;;;;;;10.89;44.89;98867.99;106465;1276;123785;-72
2022/04/12 10:26:25;;;;;;;14.60;7.80;;;;;;;10.76;45.76;98862.23;106434;1275;23952;-72
2022/04/12 10:29:00;;;;;;;17.50;9.10;;;;;;;10.63;45.59;98863.34;106258;1274;137911;-73
2022/04/12 10:31:32;;;;;;;12.30;7.60;;;;;;;10.50;46.89;98863.64;106769;1274;22599;-73
2022/04/12 10:34:02;;;;;;;13.80;7.80;;;;;;;10.49;46.47;98861.50;106450;1274;26593;-72
2022/04/12 10:36:57;;;;;;;16.00;8.50;;;;;;;10.70;46.28;98861.83;106381;1274;137630;-72
2022/04/12 10:39:45;;;;;;;13.50;7.60;;;;;;;11.03;46.38;98858.89;106191;1276;25530;-72
2022/04/12 10:42:18;;;;;;;13.00;8.20;;;;;;;11.30;44.59;98857.14;106269;1276;137705;-73
2022/04/12 10:44:47;;;;;;;15.10;8.20;;;;;;;11.59;44.39;98857.84;106606;1276;22655;-72
2022/04/12 10:47:27;;;;;;;13.50;8.00;;;;;;;11.87;44.46;98855.84;106331;1275;137518;-73
2022/04/12 10:49:58;;;;;;;14.60;8.30;;;;;;;12.19;44.25;98856.23;106472;1277;23181;-72
2022/04/12 10:52:43;;;;;;;15.80;8.00;;;;;;;12.48;43.35;98851.80;106376;1277;137592;-72
2022/04/12 10:55:15;;;;;;;13.50;7.60;;;;;;;12.77;43.73;98847.96;106450;1277;22562;-73
2022/04/12 10:57:43;;;;;;;10.60;6.70;;;;;;;13.02;41.12;98841.06;106167;1277;24242;-73
2022/04/12 11:00:11;;;;;;;11.70;6.90;;;;;;;13.18;39.80;98837.34;106259;1276;137489;-73
2022/04/12 11:02:43;;;;;;;12.00;6.50;;;;;;;13.31;38.96;98837.41;106037;1276;25446;-73
2022/04/12 11:05:37;;;;;;;9.60;6.10;;;;;;;13.38;38.87;98836.22;106107;1276;137793;-72
2022/04/12 11:08:13;;;;;;;9.70;5.60;;;;;;;13.32;38.96;98834.27;106239;1276;22814;-72
2022/04/12 11:11:04;;;;;;;10.50;6.80;;;;;;;13.32;38.78;98835.97;105907;1276;137846;-72
2022/04/12 11:13:33;;;;;;;12.40;6.80;;;;;;;13.28;39.46;98837.64;106053;1277;22566;-72
2022/04/12 11:16:01;;;;;;;;;;;;;;;13.21;39.41;98840.33;106192;1277;25225;-72
2022/04/12 11:18:49;;;;;;;9.40;6.00;;;;;;;13.10;39.13;98839.30;106153;1277;123775;-72
2022/04/12 11:21:18;;;;;;;8.60;6.30;;;;;;;12.97;39.12;98840.65;106547;1276;22695;-73
2022/04/12 11:23:57;;;;;;;9.90;5.80;;;;;;;12.98;40.07;98843.72;106177;1276;139488;-72
2022/04/12 11:26:47;;;;;;;11.20;7.20;;;;;;;13.05;40.91;98839.23;106064;1276;22718;-73
2022/04/12 11:29:20;;;;;;;10.10;6.40;;;;;;;13.11;40.07;98836.38;106495;1276;137959;-73
2022/04/12 11:31:53;;;;;;;12.30;6.90;;;;;;;13.34;39.44;98832.10;106021;1280;30523;-73